sensor_id;sensor_type;location;lat;lon;timestamp;pressure;altitude;pressure_sealevel;temperature;humidity
51687;BME280;37774;52.192;4.584;2023-04-24T00:00:45;99642.34;;;8.88;100.00
51687;BME280;37774;52.192;4.584;2023-04-24T00:03:31;99615.16;;;8.66;100.00
51687;BME280;37774;52.192;4.584;2023-04-24T00:06:16;99606.50;;;8.65;100.00
51687;BME280;37774;52.192;4.584;2023-04-24T00:09:02;99635.00;;;8.67;100.00
51687;BME280;37774;52.192;4.584;2023-04-24T00:11:47;99579.69;;;8.21;100.00
51687;BME280;37774;52.192;4.584;2023-04-24T00:14:34;99653.25;;;8.59;100.00
51687;BME280;37774;52.192;4.584;2023-04-24T00:17:19;99661.78;;;8.64;100.00
51687;BME280;37774;52.192;4.584;2023-04-24T00:20:06;99633.72;;;8.38;100.00
51687;BME280;37774;52.192;4.584;2023-04-24T00:22:51;99673.94;;;8.60;100.00
51687;BME280;37774;52.192;4.584;2023-04-24T00:25:37;99615.06;;;8.22;100.00
51687;BME280;37774;52.192;4.584;2023-04-24T00:28:22;99651.63;;;8.53;100.00
51687;BME280;37774;52.192;4.584;2023-04-24T00:31:09;99653.38;;;8.53;100.00
51687;BME280;37774;52.192;4.584;2023-04-24T00:33:54;99608.81;;;8.32;100.00
51687;BME280;37774;52.192;4.584;2023-04-24T00:36:40;99602.78;;;8.33;100.00
51687;BME280;37774;52.192;4.584;2023-04-24T00:39:26;99568.66;;;8.11;100.00
51687;BME280;37774;52.192;4.584;2023-04-24T00:42:11;99615.44;;;8.48;100.00
51687;BME280;37774;52.192;4.584;2023-04-24T00:44:57;99572.00;;;8.17;100.00
51687;BME280;37774;52.192;4.584;2023-04-24T00:47:45;99620.53;;;8.55;100.00
51687;BME280;37774;52.192;4.584;2023-04-24T00:50:30;99636.13;;;8.52;100.00
51687;BME280;37774;52.192;4.584;2023-04-24T00:53:15;99620.72;;;8.41;100.00
51687;BME280;37774;52.192;4.584;2023-04-24T00:56:01;99626.66;;;8.47;100.00
51687;BME280;37774;52.192;4.584;2023-04-24T00:58:47;99630.13;;;8.50;100.00
51687;BME280;37774;52.192;4.584;2023-04-24T01:01:33;99625.19;;;8.32;100.00
51687;BME280;37774;52.192;4.584;2023-04-24T01:04:20;99590.06;;;8.19;100.00
51687;BME280;37774;52.192;4.584;2023-04-24T01:07:05;99649.16;;;8.44;100.00
51687;BME280;37774;52.192;4.584;2023-04-24T01:09:54;99631.25;;;8.33;100.00
51687;BME280;37774;52.192;4.584;2023-04-24T01:12:39;99657.78;;;8.44;100.00
51687;BME280;37774;52.192;4.584;2023-04-24T01:15:25;99647.53;;;8.38;100.00
51687;BME280;37774;52.192;4.584;2023-04-24T01:18:10;99657.78;;;8.44;100.00
51687;BME280;37774;52.192;4.584;2023-04-24T01:20:58;99658.69;;;8.43;100.00
51687;BME280;37774;52.192;4.584;2023-04-24T01:23:45;99662.09;;;8.44;100.00
51687;BME280;37774;52.192;4.584;2023-04-24T01:26:31;99640.78;;;8.31;100.00
51687;BME280;37774;52.192;4.584;2023-04-24T01:29:17;99646.72;;;8.36;100.00
51687;BME280;37774;52.192;4.584;2023-04-24T01:32:03;99668.09;;;8.47;100.00
51687;BME280;37774;52.192;4.584;2023-04-24T01:34:49;99602.41;;;8.04;100.00
51687;BME280;37774;52.192;4.584;2023-04-24T01:37:34;99573.25;;;7.93;100.00
51687;BME280;37774;52.192;4.584;2023-04-24T01:40:22;99663.81;;;8.46;100.00
51687;BME280;37774;52.192;4.584;2023-04-24T01:43:08;99683.69;;;8.43;100.00
51687;BME280;37774;52.192;4.584;2023-04-24T01:45:53;99692.28;;;8.46;100.00
51687;BME280;37774;52.192;4.584;2023-04-24T01:48:39;99688.00;;;8.44;100.00
51687;BME280;37774;52.192;4.584;2023-04-24T01:51:25;99678.47;;;8.46;100.00
51687;BME280;37774;52.192;4.584;2023-04-24T01:54:11;99683.63;;;8.47;100.00
51687;BME280;37774;52.192;4.584;2023-04-24T01:56:58;99682.91;;;8.38;100.00
51687;BME280;37774;52.192;4.584;2023-04-24T01:59:44;99661.59;;;8.23;100.00
51687;BME280;37774;52.192;4.584;2023-04-24T02:02:30;99653.97;;;8.15;100.00
51687;BME280;37774;52.192;4.584;2023-04-24T02:05:15;99678.78;;;8.29;100.00
51687;BME280;37774;52.192;4.584;2023-04-24T02:08:00;99582.16;;;7.75;100.00
51687;BME280;37774;52.192;4.584;2023-04-24T02:10:46;99708.69;;;8.45;100.00
51687;BME280;37774;52.192;4.584;2023-04-24T02:13:33;99655.94;;;8.01;100.00
51687;BME280;37774;52.192;4.584;2023-04-24T02:16:18;99646.53;;;7.97;100.00
51687;BME280;37774;52.192;4.584;2023-04-24T02:19:04;99702.91;;;8.31;100.00
51687;BME280;37774;52.192;4.584;2023-04-24T02:21:49;99678.16;;;8.14;100.00
51687;BME280;37774;52.192;4.584;2023-04-24T02:24:35;99703.66;;;8.36;100.00
51687;BME280;37774;52.192;4.584;2023-04-24T02:27:20;99708.03;;;8.34;100.00
51687;BME280;37774;52.192;4.584;2023-04-24T02:30:09;99713.09;;;8.40;100.00
51687;BME280;37774;52.192;4.584;2023-04-24T02:32:55;99730.44;;;8.35;100.00
51687;BME280;37774;52.192;4.584;2023-04-24T02:35:40;99700.47;;;8.20;100.00
51687;BME280;37774;52.192;4.584;2023-04-24T02:38:26;99710.91;;;8.14;100.00
51687;BME280;37774;52.192;4.584;2023-04-24T02:41:11;99777.13;;;8.29;100.00
51687;BME280;37774;52.192;4.584;2023-04-24T02:43:57;99795.03;;;8.43;100.00
51687;BME280;37774;52.192;4.584;2023-04-24T02:46:44;99809.66;;;8.50;100.00
51687;BME280;37774;52.192;4.584;2023-04-24T02:49:29;99819.03;;;8.56;100.00
51687;BME280;37774;52.192;4.584;2023-04-24T02:52:14;99745.63;;;8.02;100.00
51687;BME280;37774;52.192;4.584;2023-04-24T02:55:00;99706.34;;;7.73;100.00
51687;BME280;37774;52.192;4.584;2023-04-24T02:57:46;99775.56;;;8.18;100.00
51687;BME280;37774;52.192;4.584;2023-04-24T03:00:31;99832.94;;;8.50;100.00
51687;BME280;37774;52.192;4.584;2023-04-24T03:03:18;99821.72;;;8.46;100.00
51687;BME280;37774;52.192;4.584;2023-04-24T03:06:04;99803.00;;;8.29;100.00
51687;BME280;37774;52.192;4.584;2023-04-24T03:08:50;99749.72;;;8.15;100.00
51687;BME280;37774;52.192;4.584;2023-04-24T03:11:35;99805.25;;;8.55;100.00
51687;BME280;37774;52.192;4.584;2023-04-24T03:14:21;99802.78;;;8.43;100.00
51687;BME280;37774;52.192;4.584;2023-04-24T03:17:06;99766.94;;;8.18;100.00
51687;BME280;37774;52.192;4.584;2023-04-24T03:19:53;99819.91;;;8.55;100.00
51687;BME280;37774;52.192;4.584;2023-04-24T03:22:39;99779.03;;;8.17;100.00
51687;BME280;37774;52.192;4.584;2023-04-24T03:25:24;99846.88;;;8.38;100.00
51687;BME280;37774;52.192;4.584;2023-04-24T03:28:09;99846.16;;;8.28;100.00
51687;BME280;37774;52.192;4.584;2023-04-24T03:30:55;99864.09;;;8.42;100.00
51687;BME280;37774;52.192;4.584;2023-04-24T03:33:40;99865.13;;;8.29;100.00
51687;BME280;37774;52.192;4.584;2023-04-24T03:36:27;99875.81;;;8.04;100.00
51687;BME280;37774;52.192;4.584;2023-04-24T03:39:13;99900.75;;;8.11;100.00
51687;BME280;37774;52.192;4.584;2023-04-24T03:41:58;99868.25;;;7.87;100.00
51687;BME280;37774;52.192;4.584;2023-04-24T03:44:44;99927.38;;;8.18;100.00
51687;BME280;37774;52.192;4.584;2023-04-24T03:47:29;99929.97;;;8.18;100.00
51687;BME280;37774;52.192;4.584;2023-04-24T03:50:15;99943.78;;;8.17;100.00
51687;BME280;37774;52.192;4.584;2023-04-24T03:53:02;99945.59;;;8.10;100.00
51687;BME280;37774;52.192;4.584;2023-04-24T03:55:47;99951.50;;;8.22;100.00
51687;BME280;37774;52.192;4.584;2023-04-24T03:58:33;99916.50;;;7.89;100.00
51687;BME280;37774;52.192;4.584;2023-04-24T04:01:18;99961.16;;;8.07;100.00
51687;BME280;37774;52.192;4.584;2023-04-24T04:04:04;99975.75;;;8.14;100.00
51687;BME280;37774;52.192;4.584;2023-04-24T04:06:50;99971.53;;;8.07;100.00
51687;BME280;37774;52.192;4.584;2023-04-24T04:09:37;99977.56;;;8.04;100.00
51687;BME280;37774;52.192;4.584;2023-04-24T04:12:22;99940.75;;;7.79;100.00
51687;BME280;37774;52.192;4.584;2023-04-24T04:15:08;99992.28;;;7.99;100.00
51687;BME280;37774;52.192;4.584;2023-04-24T04:17:54;99964.09;;;7.73;100.00
51687;BME280;37774;52.192;4.584;2023-04-24T04:20:39;99988.25;;;7.72;100.00
51687;BME280;37774;52.192;4.584;2023-04-24T04:23:25;100014.66;;;8.03;100.00
51687;BME280;37774;52.192;4.584;2023-04-24T04:26:13;100017.22;;;8.08;100.00
51687;BME280;37774;52.192;4.584;2023-04-24T04:28:58;99994.19;;;7.82;100.00
51687;BME280;37774;52.192;4.584;2023-04-24T04:31:45;100027.63;;;8.05;100.00
51687;BME280;37774;52.192;4.584;2023-04-24T04:34:30;100032.84;;;7.97;100.00
51687;BME280;37774;52.192;4.584;2023-04-24T04:37:15;100038.00;;;8.00;100.00
51687;BME280;37774;52.192;4.584;2023-04-24T04:40:02;100022.59;;;7.88;100.00
51687;BME280;37774;52.192;4.584;2023-04-24T04:42:51;100036.25;;;8.04;100.00
51687;BME280;37774;52.192;4.584;2023-04-24T04:45:38;99982.97;;;7.83;100.00
51687;BME280;37774;52.192;4.584;2023-04-24T04:48:24;99938.25;;;7.70;100.00
51687;BME280;37774;52.192;4.584;2023-04-24T04:51:09;99942.41;;;7.88;100.00
51687;BME280;37774;52.192;4.584;2023-04-24T04:53:55;99908.91;;;7.75;100.00
51687;BME280;37774;52.192;4.584;2023-04-24T04:56:40;99932.84;;;7.93;100.00
51687;BME280;37774;52.192;4.584;2023-04-24T04:59:27;99896.88;;;7.70;100.00
51687;BME280;37774;52.192;4.584;2023-04-24T05:02:12;99906.25;;;7.82;100.00
51687;BME280;37774;52.192;4.584;2023-04-24T05:04:58;99862.50;;;7.63;100.00
51687;BME280;37774;52.192;4.584;2023-04-24T05:07:43;99843.56;;;7.59;100.00
51687;BME280;37774;52.192;4.584;2023-04-24T05:10:29;99908.91;;;7.74;100.00
51687;BME280;37774;52.192;4.584;2023-04-24T05:13:14;99822.59;;;7.03;100.00
51687;BME280;37774;52.192;4.584;2023-04-24T05:16:01;99911.66;;;7.60;100.00
51687;BME280;37774;52.192;4.584;2023-04-24T05:18:46;99925.47;;;7.57;100.00
51687;BME280;37774;52.192;4.584;2023-04-24T05:21:32;99949.66;;;7.52;100.00
51687;BME280;37774;52.192;4.584;2023-04-24T05:24:17;99692.69;;;5.90;100.00
51687;BME280;37774;52.192;4.584;2023-04-24T05:27:03;99959.22;;;7.40;100.00
51687;BME280;37774;52.192;4.584;2023-04-24T05:29:49;99992.78;;;7.47;100.00
51687;BME280;37774;52.192;4.584;2023-04-24T05:32:36;99979.03;;;7.38;100.00
51687;BME280;37774;52.192;4.584;2023-04-24T05:35:22;100006.56;;;7.47;100.00
51687;BME280;37774;52.192;4.584;2023-04-24T05:38:07;100032.47;;;7.42;100.00
51687;BME280;37774;52.192;4.584;2023-04-24T05:40:53;100046.25;;;7.38;100.00
51687;BME280;37774;52.192;4.584;2023-04-24T05:43:38;100073.81;;;7.41;100.00
51687;BME280;37774;52.192;4.584;2023-04-24T05:46:24;100080.72;;;7.39;100.00
51687;BME280;37774;52.192;4.584;2023-04-24T05:49:10;100085.97;;;7.29;100.00
51687;BME280;37774;52.192;4.584;2023-04-24T05:51:56;100120.38;;;7.36;100.00
51687;BME280;37774;52.192;4.584;2023-04-24T05:54:42;100070.50;;;7.20;100.00
51687;BME280;37774;52.192;4.584;2023-04-24T05:57:27;100115.16;;;7.47;100.00
51687;BME280;37774;52.192;4.584;2023-04-24T06:00:13;100128.94;;;7.46;100.00
51687;BME280;37774;52.192;4.584;2023-04-24T06:03:00;100104.13;;;7.14;100.00
51687;BME280;37774;52.192;4.584;2023-04-24T06:05:49;100160.84;;;7.47;100.00
51687;BME280;37774;52.192;4.584;2023-04-24T06:08:35;100137.66;;;7.25;100.00
51687;BME280;37774;52.192;4.584;2023-04-24T06:11:21;100184.09;;;7.45;100.00
51687;BME280;37774;52.192;4.584;2023-04-24T06:14:07;99942.81;;;5.92;100.00
51687;BME280;37774;52.192;4.584;2023-04-24T06:16:52;100167.03;;;7.10;100.00
51687;BME280;37774;52.192;4.584;2023-04-24T06:19:37;100239.25;;;7.47;100.00
51687;BME280;37774;52.192;4.584;2023-04-24T06:22:24;100240.16;;;7.34;100.00
51687;BME280;37774;52.192;4.584;2023-04-24T06:25:10;100213.53;;;7.11;100.00
51687;BME280;37774;52.192;4.584;2023-04-24T06:27:55;100299.56;;;7.48;100.00
51687;BME280;37774;52.192;4.584;2023-04-24T06:30:41;100297.00;;;7.40;100.00
51687;BME280;37774;52.192;4.584;2023-04-24T06:33:27;100304.78;;;7.27;100.00
51687;BME280;37774;52.192;4.584;2023-04-24T06:36:12;100349.53;;;7.51;100.00
51687;BME280;37774;52.192;4.584;2023-04-24T06:38:59;100371.09;;;7.49;100.00
51687;BME280;37774;52.192;4.584;2023-04-24T06:41:44;100350.44;;;7.31;100.00
51687;BME280;37774;52.192;4.584;2023-04-24T06:44:30;100379.72;;;7.43;100.00
51687;BME280;37774;52.192;4.584;2023-04-24T06:47:15;100415.06;;;7.45;100.00
51687;BME280;37774;52.192;4.584;2023-04-24T06:50:01;100445.19;;;7.57;100.00
51687;BME280;37774;52.192;4.584;2023-04-24T06:52:46;100466.75;;;7.53;100.00
51687;BME280;37774;52.192;4.584;2023-04-24T06:55:35;100216.19;;;5.89;100.00
51687;BME280;37774;52.192;4.584;2023-04-24T06:58:21;100464.16;;;7.33;100.00
51687;BME280;37774;52.192;4.584;2023-04-24T07:01:06;100401.28;;;6.78;100.00
51687;BME280;37774;52.192;4.584;2023-04-24T07:03:52;100535.72;;;7.51;100.00
51687;BME280;37774;52.192;4.584;2023-04-24T07:06:37;100551.25;;;7.53;100.00
51687;BME280;37774;52.192;4.584;2023-04-24T07:09:24;100575.38;;;7.45;100.00
51687;BME280;37774;52.192;4.584;2023-04-24T07:12:11;100531.38;;;7.21;100.00
51687;BME280;37774;52.192;4.584;2023-04-24T07:14:57;100609.84;;;7.52;100.00
51687;BME280;37774;52.192;4.584;2023-04-24T07:17:43;100527.84;;;6.89;100.00
51687;BME280;37774;52.192;4.584;2023-04-24T07:20:28;100654.66;;;7.57;100.00
51687;BME280;37774;52.192;4.584;2023-04-24T07:23:13;100607.16;;;7.09;100.00
51687;BME280;37774;52.192;4.584;2023-04-24T07:25:59;100668.38;;;7.33;100.00
51687;BME280;37774;52.192;4.584;2023-04-24T07:28:46;100547.53;;;6.51;100.00
51687;BME280;37774;52.192;4.584;2023-04-24T07:31:31;100727.91;;;7.45;100.00
51687;BME280;37774;52.192;4.584;2023-04-24T07:34:17;100744.19;;;7.26;100.00
51687;BME280;37774;52.192;4.584;2023-04-24T07:37:02;100718.13;;;6.84;100.00
51687;BME280;37774;52.192;4.584;2023-04-24T07:39:48;100845.00;;;7.29;100.00
51687;BME280;37774;52.192;4.584;2023-04-24T07:42:33;100748.72;;;6.33;100.00
51687;BME280;37774;52.192;4.584;2023-04-24T07:45:21;100856.84;;;6.91;100.00
51687;BME280;37774;52.192;4.584;2023-04-24T07:48:08;100945.06;;;7.41;100.00
51687;BME280;37774;52.192;4.584;2023-04-24T07:50:54;100965.81;;;7.49;100.00
51687;BME280;37774;52.192;4.584;2023-04-24T07:53:39;100764.09;;;6.16;100.00
51687;BME280;37774;52.192;4.584;2023-04-24T07:56:25;100938.78;;;7.08;100.00
51687;BME280;37774;52.192;4.584;2023-04-24T07:59:11;100960.22;;;6.97;100.00
51687;BME280;37774;52.192;4.584;2023-04-24T08:01:57;101037.97;;;7.22;100.00
51687;BME280;37774;52.192;4.584;2023-04-24T08:04:43;100962.69;;;6.88;100.00
51687;BME280;37774;52.192;4.584;2023-04-24T08:07:28;101019.72;;;7.04;100.00
51687;BME280;37774;52.192;4.584;2023-04-24T08:10:14;101049.81;;;7.00;100.00
51687;BME280;37774;52.192;4.584;2023-04-24T08:12:59;101012.34;;;6.57;100.00
51687;BME280;37774;52.192;4.584;2023-04-24T08:15:45;101139.78;;;7.35;100.00
51687;BME280;37774;52.192;4.584;2023-04-24T08:18:32;101166.53;;;7.40;100.00
51687;BME280;37774;52.192;4.584;2023-04-24T08:21:18;101151.75;;;7.25;100.00
51687;BME280;37774;52.192;4.584;2023-04-24T08:24:04;100916.59;;;5.74;100.00
51687;BME280;37774;52.192;4.584;2023-04-24T08:26:52;101098.84;;;6.94;100.00
51687;BME280;37774;52.192;4.584;2023-04-24T08:29:38;101143.19;;;7.29;100.00
51687;BME280;37774;52.192;4.584;2023-04-24T08:32:23;101099.78;;;7.00;100.00
51687;BME280;37774;52.192;4.584;2023-04-24T08:35:10;100919.34;;;5.83;100.00
51687;BME280;37774;52.192;4.584;2023-04-24T08:37:56;101222.75;;;7.55;100.00
51687;BME280;37774;52.192;4.584;2023-04-24T08:40:42;101219.38;;;7.63;100.00
51687;BME280;37774;52.192;4.584;2023-04-24T08:43:29;101146.41;;;7.11;100.00
51687;BME280;37774;52.192;4.584;2023-04-24T08:46:17;101104.75;;;6.83;100.00
51687;BME280;37774;52.192;4.584;2023-04-24T08:49:03;100938.97;;;5.74;100.00
51687;BME280;37774;52.192;4.584;2023-04-24T08:51:52;101210.56;;;7.45;100.00
51687;BME280;37774;52.192;4.584;2023-04-24T08:54:37;101063.06;;;6.54;100.00
51687;BME280;37774;52.192;4.584;2023-04-24T08:57:24;101208.88;;;7.47;100.00
51687;BME280;37774;52.192;4.584;2023-04-24T09:00:11;101085.78;;;6.83;100.00
51687;BME280;37774;52.192;4.584;2023-04-24T09:02:57;101124.22;;;7.30;100.00
51687;BME280;37774;52.192;4.584;2023-04-24T09:05:43;101091.31;;;7.15;100.00
51687;BME280;37774;52.192;4.584;2023-04-24T09:08:32;101084.31;;;7.05;100.00
51687;BME280;37774;52.192;4.584;2023-04-24T09:11:18;101152.69;;;7.35;100.00
51687;BME280;37774;52.192;4.584;2023-04-24T09:14:04;101131.84;;;7.20;100.00
51687;BME280;37774;52.192;4.584;2023-04-24T09:16:50;101145.69;;;7.25;100.00
51687;BME280;37774;52.192;4.584;2023-04-24T09:19:36;101130.94;;;7.13;100.00
51687;BME280;37774;52.192;4.584;2023-04-24T09:22:21;101088.25;;;6.72;100.00
51687;BME280;37774;52.192;4.584;2023-04-24T09:25:09;101164.41;;;7.02;100.00
51687;BME280;37774;52.192;4.584;2023-04-24T09:28:00;101139.78;;;6.63;100.00
51687;BME280;37774;52.192;4.584;2023-04-24T09:30:46;101175.22;;;6.73;100.00
51687;BME280;37774;52.192;4.584;2023-04-24T09:33:53;101196.16;;;6.93;100.00
51687;BME280;37774;52.192;4.584;2023-04-24T09:36:41;101239.88;;;7.42;100.00
51687;BME280;37774;52.192;4.584;2023-04-24T09:39:27;101180.63;;;6.92;100.00
51687;BME280;37774;52.192;4.584;2023-04-24T09:42:14;101258.28;;;7.72;100.00
51687;BME280;37774;52.192;4.584;2023-04-24T09:44:59;101016.28;;;5.70;100.00
51687;BME280;37774;52.192;4.584;2023-04-24T09:47:45;101316.19;;;7.15;100.00
51687;BME280;37774;52.192;4.584;2023-04-24T09:50:31;101269.09;;;6.75;100.00
51687;BME280;37774;52.192;4.584;2023-04-24T09:53:23;101273.53;;;6.84;100.00
51687;BME280;37774;52.192;4.584;2023-04-24T09:56:10;101316.31;;;7.25;100.00
51687;BME280;37774;52.192;4.584;2023-04-24T09:59:04;101012.50;;;5.48;100.00
51687;BME280;37774;52.192;4.584;2023-04-24T10:01:49;101365.47;;;7.93;100.00
51687;BME280;37774;52.192;4.584;2023-04-24T10:04:36;101286.22;;;8.02;100.00
51687;BME280;37774;52.192;4.584;2023-04-24T10:07:21;101078.09;;;6.87;100.00
51687;BME280;37774;52.192;4.584;2023-04-24T10:10:08;101235.31;;;8.04;100.00
51687;BME280;37774;52.192;4.584;2023-04-24T10:12:55;101329.06;;;8.57;100.00
51687;BME280;37774;52.192;4.584;2023-04-24T10:15:42;101307.50;;;8.63;100.00
51687;BME280;37774;52.192;4.584;2023-04-24T10:18:27;101278.22;;;8.73;100.00
51687;BME280;37774;52.192;4.584;2023-04-24T10:21:14;101248.03;;;8.82;100.00
51687;BME280;37774;52.192;4.584;2023-04-24T10:24:00;101139.06;;;8.57;100.00
51687;BME280;37774;52.192;4.584;2023-04-24T10:26:47;101120.97;;;8.58;100.00
51687;BME280;37774;52.192;4.584;2023-04-24T10:29:35;101160.66;;;8.54;100.00
51687;BME280;37774;52.192;4.584;2023-04-24T10:32:22;100880.09;;;6.93;100.00
51687;BME280;37774;52.192;4.584;2023-04-24T10:35:08;101071.75;;;8.58;100.00
51687;BME280;37774;52.192;4.584;2023-04-24T10:37:58;101182.63;;;9.32;100.00
51687;BME280;37774;52.192;4.584;2023-04-24T10:40:45;101102.56;;;8.19;100.00
51687;BME280;37774;52.192;4.584;2023-04-24T10:43:33;101123.00;;;7.85;100.00
51687;BME280;37774;52.192;4.584;2023-04-24T10:46:20;101204.22;;;7.97;100.00
51687;BME280;37774;52.192;4.584;2023-04-24T10:49:07;101132.31;;;7.63;100.00
51687;BME280;37774;52.192;4.584;2023-04-24T10:51:53;101274.41;;;8.32;100.00
51687;BME280;37774;52.192;4.584;2023-04-24T10:54:42;101243.69;;;7.79;100.00
51687;BME280;37774;52.192;4.584;2023-04-24T10:57:29;101221.00;;;7.54;100.00
51687;BME280;37774;52.192;4.584;2023-04-24T11:00:18;101361.44;;;8.16;100.00
51687;BME280;37774;52.192;4.584;2023-04-24T11:03:04;101367.34;;;8.04;100.00
51687;BME280;37774;52.192;4.584;2023-04-24T11:05:58;101401.31;;;8.34;100.00
51687;BME280;37774;52.192;4.584;2023-04-24T11:08:44;101409.13;;;8.37;100.00
51687;BME280;37774;52.192;4.584;2023-04-24T11:11:30;101368.22;;;8.05;100.00
51687;BME280;37774;52.192;4.584;2023-04-24T11:14:16;101416.25;;;8.55;100.00
51687;BME280;37774;52.192;4.584;2023-04-24T11:17:02;101316.44;;;8.05;100.00
51687;BME280;37774;52.192;4.584;2023-04-24T11:19:50;101332.03;;;8.13;100.00
51687;BME280;37774;52.192;4.584;2023-04-24T11:22:38;101348.94;;;8.58;100.00
51687;BME280;37774;52.192;4.584;2023-04-24T11:25:24;101369.97;;;8.99;100.00
51687;BME280;37774;52.192;4.584;2023-04-24T11:28:14;101346.81;;;9.22;100.00
51687;BME280;37774;52.192;4.584;2023-04-24T11:31:34;101325.09;;;9.04;100.00
51687;BME280;37774;52.192;4.584;2023-04-24T11:34:20;101280.19;;;9.09;100.00
51687;BME280;37774;52.192;4.584;2023-04-24T11:37:06;101250.81;;;9.14;100.00
51687;BME280;37774;52.192;4.584;2023-04-24T11:39:55;101262.00;;;9.04;100.00
51687;BME280;37774;52.192;4.584;2023-04-24T11:42:41;101285.56;;;9.49;100.00
51687;BME280;37774;52.192;4.584;2023-04-24T11:45:28;101203.31;;;9.17;100.00
51687;BME280;37774;52.192;4.584;2023-04-24T11:48:18;101202.44;;;9.19;100.00
51687;BME280;37774;52.192;4.584;2023-04-24T11:51:04;101145.28;;;8.96;100.00
51687;BME280;37774;52.192;4.584;2023-04-24T11:53:50;101056.16;;;8.54;100.00
51687;BME280;37774;52.192;4.584;2023-04-24T11:56:36;100907.25;;;7.57;100.00
51687;BME280;37774;52.192;4.584;2023-04-24T11:59:23;100936.75;;;7.90;100.00
51687;BME280;37774;52.192;4.584;2023-04-24T12:02:09;101158.41;;;9.40;100.00
51687;BME280;37774;52.192;4.584;2023-04-24T12:05:05;101083.78;;;8.52;100.00
51687;BME280;37774;52.192;4.584;2023-04-24T12:07:50;101066.44;;;8.43;100.00
51687;BME280;37774;52.192;4.584;2023-04-24T12:10:36;101215.34;;;9.02;100.00
51687;BME280;37774;52.192;4.584;2023-04-24T12:13:26;101009.69;;;7.38;100.00
51687;BME280;37774;52.192;4.584;2023-04-24T12:16:12;101191.72;;;8.53;100.00
51687;BME280;37774;52.192;4.584;2023-04-24T12:18:58;101209.09;;;8.69;100.00
51687;BME280;37774;52.192;4.584;2023-04-24T12:21:59;101100.06;;;8.32;100.00
51687;BME280;37774;52.192;4.584;2023-04-24T12:25:01;101159.97;;;8.89;100.00
51687;BME280;37774;52.192;4.584;2023-04-24T12:27:52;101192.91;;;9.11;100.00
51687;BME280;37774;52.192;4.584;2023-04-24T12:30:42;101024.91;;;8.23;100.00
51687;BME280;37774;52.192;4.584;2023-04-24T12:33:32;101180.00;;;9.37;100.00
51687;BME280;37774;52.192;4.584;2023-04-24T12:36:21;101096.09;;;9.05;100.00
51687;BME280;37774;52.192;4.584;2023-04-24T12:39:14;101050.31;;;9.18;100.00
51687;BME280;37774;52.192;4.584;2023-04-24T12:42:00;100881.75;;;8.55;100.00
51687;BME280;37774;52.192;4.584;2023-04-24T12:44:47;100849.81;;;8.81;100.00
51687;BME280;37774;52.192;4.584;2023-04-24T12:47:34;100792.75;;;8.14;100.00
51687;BME280;37774;52.192;4.584;2023-04-24T12:50:21;100959.56;;;9.31;100.00
51687;BME280;37774;52.192;4.584;2023-04-24T12:53:07;100943.06;;;9.80;100.00
51687;BME280;37774;52.192;4.584;2023-04-24T12:55:53;100920.44;;;10.16;100.00
51687;BME280;37774;52.192;4.584;2023-04-24T12:58:41;100698.66;;;8.82;100.00
51687;BME280;37774;52.192;4.584;2023-04-24T13:01:26;100891.22;;;9.60;100.00
51687;BME280;37774;52.192;4.584;2023-04-24T13:04:13;101029.38;;;10.58;100.00
51687;BME280;37774;52.192;4.584;2023-04-24T13:07:00;100987.84;;;10.46;100.00
51687;BME280;37774;52.192;4.584;2023-04-24T13:09:48;101057.00;;;10.81;100.00
51687;BME280;37774;52.192;4.584;2023-04-24T13:12:34;100853.09;;;9.76;100.00
51687;BME280;37774;52.192;4.584;2023-04-24T13:15:20;100848.00;;;9.59;100.00
51687;BME280;37774;52.192;4.584;2023-04-24T13:18:05;101085.22;;;11.48;100.00
51687;BME280;37774;52.192;4.584;2023-04-24T13:20:53;100560.59;;;8.45;100.00
51687;BME280;37774;52.192;4.584;2023-04-24T13:23:53;101057.69;;;11.09;100.00
51687;BME280;37774;52.192;4.584;2023-04-24T13:27:03;100806.63;;;9.03;100.00
51687;BME280;37774;52.192;4.584;2023-04-24T13:29:51;100806.66;;;8.69;100.00
51687;BME280;37774;52.192;4.584;2023-04-24T13:32:36;101096.16;;;10.27;100.00
51687;BME280;37774;52.192;4.584;2023-04-24T13:35:25;100836.88;;;8.60;100.00
51687;BME280;37774;52.192;4.584;2023-04-24T13:38:15;100691.81;;;8.00;100.00
51687;BME280;37774;52.192;4.584;2023-04-24T13:41:17;100886.97;;;9.18;100.00
51687;BME280;37774;52.192;4.584;2023-04-24T13:44:17;100659.88;;;7.84;100.00
51687;BME280;37774;52.192;4.584;2023-04-24T13:47:06;100671.91;;;7.48;100.00
51687;BME280;37774;52.192;4.584;2023-04-24T13:49:54;100640.72;;;7.01;100.00
51687;BME280;37774;52.192;4.584;2023-04-24T13:53:03;100791.03;;;8.25;100.00
51687;BME280;37774;52.192;4.584;2023-04-24T13:55:50;100945.72;;;9.43;100.00
51687;BME280;37774;52.192;4.584;2023-04-24T13:58:50;100869.69;;;9.00;100.00
51687;BME280;37774;52.192;4.584;2023-04-24T14:01:44;101105.66;;;10.34;100.00
51687;BME280;37774;52.192;4.584;2023-04-24T14:04:30;100841.19;;;8.83;100.00
51687;BME280;37774;52.192;4.584;2023-04-24T14:07:30;100840.31;;;9.14;100.00
51687;BME280;37774;52.192;4.584;2023-04-24T14:10:18;101007.91;;;10.08;100.00
51687;BME280;37774;52.192;4.584;2023-04-24T14:13:06;100659.84;;;8.47;100.00
51687;BME280;37774;52.192;4.584;2023-04-24T14:15:52;101106.00;;;11.51;100.00
51687;BME280;37774;52.192;4.584;2023-04-24T14:18:38;100947.19;;;10.43;100.00
51687;BME280;37774;52.192;4.584;2023-04-24T14:21:23;101046.53;;;10.93;100.00
51687;BME280;37774;52.192;4.584;2023-04-24T14:24:08;100820.13;;;9.98;100.00
51687;BME280;37774;52.192;4.584;2023-04-24T14:26:57;100864.03;;;10.38;100.00
51687;BME280;37774;52.192;4.584;2023-04-24T14:29:44;100804.78;;;9.45;100.00
51687;BME280;37774;52.192;4.584;2023-04-24T14:32:29;101074.22;;;11.02;100.00
51687;BME280;37774;52.192;4.584;2023-04-24T14:35:18;100624.53;;;7.97;100.00